sensor_id;sensor_type;location;lat;lon;timestamp;temperature;humidity
6496;DHT22;3281;47.658;9.166;2022-09-30T00:01:18;11.10;36.90
6496;DHT22;3281;47.658;9.166;2022-09-30T00:03:45;11.20;37.70
6496;DHT22;3281;47.658;9.166;2022-09-30T00:06:12;11.20;33.90
6496;DHT22;3281;47.658;9.166;2022-09-30T00:08:39;11.20;36.20
6496;DHT22;3281;47.658;9.166;2022-09-30T00:11:11;11.10;36.60
6496;DHT22;3281;47.658;9.166;2022-09-30T00:13:41;11.30;36.00
6496;DHT22;3281;47.658;9.166;2022-09-30T00:16:09;11.20;36.50
6496;DHT22;3281;47.658;9.166;2022-09-30T00:18:37;11.20;34.90
6496;DHT22;3281;47.658;9.166;2022-09-30T00:21:04;11.20;34.60
6496;DHT22;3281;47.658;9.166;2022-09-30T00:23:31;11.20;34.10
6496;DHT22;3281;47.658;9.166;2022-09-30T00:25:59;11.10;36.60
6496;DHT22;3281;47.658;9.166;2022-09-30T00:28:28;11.30;43.10
6496;DHT22;3281;47.658;9.166;2022-09-30T00:30:58;11.30;40.90
6496;DHT22;3281;47.658;9.166;2022-09-30T00:33:25;11.40;39.10
6496;DHT22;3281;47.658;9.166;2022-09-30T00:35:52;11.50;38.00
6496;DHT22;3281;47.658;9.166;2022-09-30T00:38:19;11.40;36.10
6496;DHT22;3281;47.658;9.166;2022-09-30T00:40:46;11.30;34.80
6496;DHT22;3281;47.658;9.166;2022-09-30T00:43:15;11.20;34.10
6496;DHT22;3281;47.658;9.166;2022-09-30T00:45:48;11.20;35.40
6496;DHT22;3281;47.658;9.166;2022-09-30T00:48:18;11.20;36.90
6496;DHT22;3281;47.658;9.166;2022-09-30T00:50:47;11.20;37.60
6496;DHT22;3281;47.658;9.166;2022-09-30T00:53:25;11.20;35.70
6496;DHT22;3281;47.658;9.166;2022-09-30T00:55:57;11.20;36.20
6496;DHT22;3281;47.658;9.166;2022-09-30T00:58:29;11.20;37.70
6496;DHT22;3281;47.658;9.166;2022-09-30T01:00:59;11.30;44.10
6496;DHT22;3281;47.658;9.166;2022-09-30T01:03:29;11.30;37.70
6496;DHT22;3281;47.658;9.166;2022-09-30T01:05:56;11.30;37.80
6496;DHT22;3281;47.658;9.166;2022-09-30T01:08:23;11.20;33.50
6496;DHT22;3281;47.658;9.166;2022-09-30T01:10:52;11.20;33.80
6496;DHT22;3281;47.658;9.166;2022-09-30T01:13:19;11.40;37.20
6496;DHT22;3281;47.658;9.166;2022-09-30T01:16:01;11.20;37.70
6496;DHT22;3281;47.658;9.166;2022-09-30T01:18:41;11.20;37.90
6496;DHT22;3281;47.658;9.166;2022-09-30T01:21:37;11.30;37.70
6496;DHT22;3281;47.658;9.166;2022-09-30T01:24:27;11.30;39.20
6496;DHT22;3281;47.658;9.166;2022-09-30T01:30:07;11.40;42.40
6496;DHT22;3281;47.658;9.166;2022-09-30T01:32:58;11.30;37.70
6496;DHT22;3281;47.658;9.166;2022-09-30T01:35:36;11.30;37.70
6496;DHT22;3281;47.658;9.166;2022-09-30T01:38:11;11.30;37.70
6496;DHT22;3281;47.658;9.166;2022-09-30T01:40:43;11.30;40.30
6496;DHT22;3281;47.658;9.166;2022-09-30T01:43:16;11.30;39.00
6496;DHT22;3281;47.658;9.166;2022-09-30T01:45:48;11.30;37.70
6496;DHT22;3281;47.658;9.166;2022-09-30T01:48:24;11.40;37.90
6496;DHT22;3281;47.658;9.166;2022-09-30T01:50:54;11.30;37.70
6496;DHT22;3281;47.658;9.166;2022-09-30T01:53:28;11.30;40.30
6496;DHT22;3281;47.658;9.166;2022-09-30T01:56:00;11.30;40.10
6496;DHT22;3281;47.658;9.166;2022-09-30T01:58:36;11.20;37.70
6496;DHT22;3281;47.658;9.166;2022-09-30T02:01:08;11.30;40.20
6496;DHT22;3281;47.658;9.166;2022-09-30T02:03:40;11.30;40.90
6496;DHT22;3281;47.658;9.166;2022-09-30T02:06:12;11.30;39.80
6496;DHT22;3281;47.658;9.166;2022-09-30T02:08:45;11.30;39.30
6496;DHT22;3281;47.658;9.166;2022-09-30T02:11:16;11.30;39.70
6496;DHT22;3281;47.658;9.166;2022-09-30T02:13:47;11.40;43.20
6496;DHT22;3281;47.658;9.166;2022-09-30T02:16:21;11.30;42.30
6496;DHT22;3281;47.658;9.166;2022-09-30T02:18:53;11.30;39.60
6496;DHT22;3281;47.658;9.166;2022-09-30T02:21:22;11.40;38.60
6496;DHT22;3281;47.658;9.166;2022-09-30T02:23:56;11.30;37.80
6496;DHT22;3281;47.658;9.166;2022-09-30T02:26:27;11.30;41.80
6496;DHT22;3281;47.658;9.166;2022-09-30T02:28:57;11.30;43.40
6496;DHT22;3281;47.658;9.166;2022-09-30T02:31:30;11.40;42.70
6496;DHT22;3281;47.658;9.166;2022-09-30T02:34:03;11.30;43.30
6496;DHT22;3281;47.658;9.166;2022-09-30T02:36:35;11.30;40.70
6496;DHT22;3281;47.658;9.166;2022-09-30T02:39:05;11.30;41.90
6496;DHT22;3281;47.658;9.166;2022-09-30T02:41:38;11.40;43.30
6496;DHT22;3281;47.658;9.166;2022-09-30T02:44:07;11.40;45.20
6496;DHT22;3281;47.658;9.166;2022-09-30T02:46:42;11.50;47.40
6496;DHT22;3281;47.658;9.166;2022-09-30T02:49:17;11.50;39.70
6496;DHT22;3281;47.658;9.166;2022-09-30T02:51:56;11.50;41.80
6496;DHT22;3281;47.658;9.166;2022-09-30T02:54:31;11.40;38.90
6496;DHT22;3281;47.658;9.166;2022-09-30T02:57:06;11.40;45.60
6496;DHT22;3281;47.658;9.166;2022-09-30T02:59:35;11.30;42.90
6496;DHT22;3281;47.658;9.166;2022-09-30T03:02:02;11.30;40.80
6496;DHT22;3281;47.658;9.166;2022-09-30T03:04:32;11.40;43.20
6496;DHT22;3281;47.658;9.166;2022-09-30T03:07:00;11.40;43.70
6496;DHT22;3281;47.658;9.166;2022-09-30T03:09:27;11.30;37.70
6496;DHT22;3281;47.658;9.166;2022-09-30T03:12:00;11.20;38.80
6496;DHT22;3281;47.658;9.166;2022-09-30T03:14:52;11.20;42.60
6496;DHT22;3281;47.658;9.166;2022-09-30T03:17:36;11.30;43.40
6496;DHT22;3281;47.658;9.166;2022-09-30T03:20:18;11.20;42.30
6496;DHT22;3281;47.658;9.166;2022-09-30T03:23:07;11.30;48.40
6496;DHT22;3281;47.658;9.166;2022-09-30T03:25:43;11.40;49.10
6496;DHT22;3281;47.658;9.166;2022-09-30T03:28:18;11.50;44.20
6496;DHT22;3281;47.658;9.166;2022-09-30T03:30:53;11.50;45.50
6496;DHT22;3281;47.658;9.166;2022-09-30T03:33:26;11.50;43.00
6496;DHT22;3281;47.658;9.166;2022-09-30T03:36:03;11.40;40.20
6496;DHT22;3281;47.658;9.166;2022-09-30T03:38:38;11.40;42.80
6496;DHT22;3281;47.658;9.166;2022-09-30T03:41:13;11.40;43.90
6496;DHT22;3281;47.658;9.166;2022-09-30T03:43:45;11.40;45.90
6496;DHT22;3281;47.658;9.166;2022-09-30T03:46:18;11.40;43.90
6496;DHT22;3281;47.658;9.166;2022-09-30T03:48:51;11.30;40.90
6496;DHT22;3281;47.658;9.166;2022-09-30T03:51:21;11.40;43.70
6496;DHT22;3281;47.658;9.166;2022-09-30T03:53:49;11.40;43.40
6496;DHT22;3281;47.658;9.166;2022-09-30T03:56:24;11.40;43.10
6496;DHT22;3281;47.658;9.166;2022-09-30T03:58:51;11.30;43.70
6496;DHT22;3281;47.658;9.166;2022-09-30T04:01:19;11.30;41.40
6496;DHT22;3281;47.658;9.166;2022-09-30T04:03:46;11.30;42.30
6496;DHT22;3281;47.658;9.166;2022-09-30T04:06:13;11.30;44.80
6496;DHT22;3281;47.658;9.166;2022-09-30T04:08:42;11.30;43.30
6496;DHT22;3281;47.658;9.166;2022-09-30T04:11:09;11.40;42.20
6496;DHT22;3281;47.658;9.166;2022-09-30T04:13:36;11.40;43.20
6496;DHT22;3281;47.658;9.166;2022-09-30T04:16:03;11.40;43.80
6496;DHT22;3281;47.658;9.166;2022-09-30T04:18:30;11.40;42.40
6496;DHT22;3281;47.658;9.166;2022-09-30T04:20:56;11.30;39.80
6496;DHT22;3281;47.658;9.166;2022-09-30T04:23:24;11.40;40.00
6496;DHT22;3281;47.658;9.166;2022-09-30T04:25:53;11.40;38.90
6496;DHT22;3281;47.658;9.166;2022-09-30T04:28:20;11.30;41.40
6496;DHT22;3281;47.658;9.166;2022-09-30T04:30:47;11.30;43.20
6496;DHT22;3281;47.658;9.166;2022-09-30T04:33:14;11.40;46.60
6496;DHT22;3281;47.658;9.166;2022-09-30T04:35:41;11.40;42.90
6496;DHT22;3281;47.658;9.166;2022-09-30T04:38:07;11.30;42.50
6496;DHT22;3281;47.658;9.166;2022-09-30T04:40:35;11.40;43.20
6496;DHT22;3281;47.658;9.166;2022-09-30T04:43:04;11.30;42.20
6496;DHT22;3281;47.658;9.166;2022-09-30T04:45:31;11.50;46.30
6496;DHT22;3281;47.658;9.166;2022-09-30T04:47:57;11.50;43.30
6496;DHT22;3281;47.658;9.166;2022-09-30T04:50:24;11.50;41.00
6496;DHT22;3281;47.658;9.166;2022-09-30T04:52:51;11.40;39.40
6496;DHT22;3281;47.658;9.166;2022-09-30T04:55:20;11.40;42.80
6496;DHT22;3281;47.658;9.166;2022-09-30T04:57:48;11.30;39.80
6496;DHT22;3281;47.658;9.166;2022-09-30T05:00:16;11.30;41.60
6496;DHT22;3281;47.658;9.166;2022-09-30T05:02:43;11.40;43.80
6496;DHT22;3281;47.658;9.166;2022-09-30T05:05:10;11.30;42.70
6496;DHT22;3281;47.658;9.166;2022-09-30T05:07:37;11.40;45.90
6496;DHT22;3281;47.658;9.166;2022-09-30T05:10:04;11.50;46.90
6496;DHT22;3281;47.658;9.166;2022-09-30T05:12:31;11.40;43.30
6496;DHT22;3281;47.658;9.166;2022-09-30T05:14:58;11.40;44.30
6496;DHT22;3281;47.658;9.166;2022-09-30T05:17:28;11.50;45.40
6496;DHT22;3281;47.658;9.166;2022-09-30T05:19:55;11.40;42.40
6496;DHT22;3281;47.658;9.166;2022-09-30T05:22:22;11.50;48.20
6496;DHT22;3281;47.658;9.166;2022-09-30T05:24:49;11.40;43.90
6496;DHT22;3281;47.658;9.166;2022-09-30T05:27:17;11.50;47.10
6496;DHT22;3281;47.658;9.166;2022-09-30T05:29:44;11.50;44.00
6496;DHT22;3281;47.658;9.166;2022-09-30T05:32:11;11.40;43.50
6496;DHT22;3281;47.658;9.166;2022-09-30T05:34:39;11.40;44.00
6496;DHT22;3281;47.658;9.166;2022-09-30T05:37:07;11.50;45.40
6496;DHT22;3281;47.658;9.166;2022-09-30T05:39:34;11.40;41.40
6496;DHT22;3281;47.658;9.166;2022-09-30T05:42:01;11.40;40.60
6496;DHT22;3281;47.658;9.166;2022-09-30T05:44:28;11.50;45.50
6496;DHT22;3281;47.658;9.166;2022-09-30T05:46:54;11.60;43.40
6496;DHT22;3281;47.658;9.166;2022-09-30T05:49:22;11.50;42.50
6496;DHT22;3281;47.658;9.166;2022-09-30T05:51:50;11.50;41.90
6496;DHT22;3281;47.658;9.166;2022-09-30T05:54:17;11.50;44.30
6496;DHT22;3281;47.658;9.166;2022-09-30T05:56:43;11.60;44.60
6496;DHT22;3281;47.658;9.166;2022-09-30T05:59:10;11.50;42.40
6496;DHT22;3281;47.658;9.166;2022-09-30T06:01:37;11.60;45.50
6496;DHT22;3281;47.658;9.166;2022-09-30T06:04:04;11.50;38.80
6496;DHT22;3281;47.658;9.166;2022-09-30T06:06:31;11.50;45.80
6496;DHT22;3281;47.658;9.166;2022-09-30T06:08:59;11.60;44.50
6496;DHT22;3281;47.658;9.166;2022-09-30T06:11:25;11.60;44.00
6496;DHT22;3281;47.658;9.166;2022-09-30T06:13:52;11.60;43.50
6496;DHT22;3281;47.658;9.166;2022-09-30T06:16:19;11.60;41.70
6496;DHT22;3281;47.658;9.166;2022-09-30T06:18:46;11.60;41.50
6496;DHT22;3281;47.658;9.166;2022-09-30T06:21:14;11.50;40.40
6496;DHT22;3281;47.658;9.166;2022-09-30T06:23:41;11.60;44.40
6496;DHT22;3281;47.658;9.166;2022-09-30T06:26:11;11.70;43.50
6496;DHT22;3281;47.658;9.166;2022-09-30T06:28:39;11.70;46.40
6496;DHT22;3281;47.658;9.166;2022-09-30T06:31:06;11.70;45.90
6496;DHT22;3281;47.658;9.166;2022-09-30T06:33:33;11.70;39.40
6496;DHT22;3281;47.658;9.166;2022-09-30T06:36:00;11.70;43.40
6496;DHT22;3281;47.658;9.166;2022-09-30T06:38:29;11.70;44.00
6496;DHT22;3281;47.658;9.166;2022-09-30T06:40:58;11.70;42.70
6496;DHT22;3281;47.658;9.166;2022-09-30T06:43:26;11.70;38.30
6496;DHT22;3281;47.658;9.166;2022-09-30T06:45:52;11.70;38.40
6496;DHT22;3281;47.658;9.166;2022-09-30T06:48:19;11.70;38.20
6496;DHT22;3281;47.658;9.166;2022-09-30T06:50:48;11.70;38.10
6496;DHT22;3281;47.658;9.166;2022-09-30T06:53:17;11.70;39.20
6496;DHT22;3281;47.658;9.166;2022-09-30T06:55:44;11.70;38.10
6496;DHT22;3281;47.658;9.166;2022-09-30T06:58:13;11.70;40.70
6496;DHT22;3281;47.658;9.166;2022-09-30T07:00:42;11.70;38.30
6496;DHT22;3281;47.658;9.166;2022-09-30T07:03:21;11.70;38.10
6496;DHT22;3281;47.658;9.166;2022-09-30T07:05:56;11.80;40.30
6496;DHT22;3281;47.658;9.166;2022-09-30T07:08:24;11.70;38.10
6496;DHT22;3281;47.658;9.166;2022-09-30T07:10:53;11.70;40.50
6496;DHT22;3281;47.658;9.166;2022-09-30T07:13:20;11.70;38.10
6496;DHT22;3281;47.658;9.166;2022-09-30T07:15:48;11.70;35.10
6496;DHT22;3281;47.658;9.166;2022-09-30T07:18:16;11.80;42.70
6496;DHT22;3281;47.658;9.166;2022-09-30T07:20:47;11.80;38.20
6496;DHT22;3281;47.658;9.166;2022-09-30T07:23:14;11.70;33.30
6496;DHT22;3281;47.658;9.166;2022-09-30T07:25:48;11.70;32.10
6496;DHT22;3281;47.658;9.166;2022-09-30T07:28:15;11.70;33.50
6496;DHT22;3281;47.658;9.166;2022-09-30T07:30:45;11.70;34.20
6496;DHT22;3281;47.658;9.166;2022-09-30T07:33:30;11.60;27.80
6496;DHT22;3281;47.658;9.166;2022-09-30T07:35:58;11.60;27.40
6496;DHT22;3281;47.658;9.166;2022-09-30T07:38:29;11.70;30.90
6496;DHT22;3281;47.658;9.166;2022-09-30T07:40:58;11.80;38.10
6496;DHT22;3281;47.658;9.166;2022-09-30T07:43:27;11.80;38.20
6496;DHT22;3281;47.658;9.166;2022-09-30T07:46:02;11.90;38.10
6496;DHT22;3281;47.658;9.166;2022-09-30T07:48:30;12.00;38.30
6496;DHT22;3281;47.658;9.166;2022-09-30T07:51:08;12.00;36.50
6496;DHT22;3281;47.658;9.166;2022-09-30T07:53:35;11.80;27.90
6496;DHT22;3281;47.658;9.166;2022-09-30T07:56:02;12.00;32.90
6496;DHT22;3281;47.658;9.166;2022-09-30T07:58:30;12.00;30.60
6496;DHT22;3281;47.658;9.166;2022-09-30T08:00:57;12.10;35.00
6496;DHT22;3281;47.658;9.166;2022-09-30T08:03:23;12.10;28.10
6496;DHT22;3281;47.658;9.166;2022-09-30T08:05:51;12.00;31.40
6496;DHT22;3281;47.658;9.166;2022-09-30T08:08:18;12.10;36.20
6496;DHT22;3281;47.658;9.166;2022-09-30T08:10:45;12.20;38.50
6496;DHT22;3281;47.658;9.166;2022-09-30T08:13:12;12.20;35.50
6496;DHT22;3281;47.658;9.166;2022-09-30T08:15:41;12.30;33.10
6496;DHT22;3281;47.658;9.166;2022-09-30T08:18:08;12.30;32.90
6496;DHT22;3281;47.658;9.166;2022-09-30T08:20:34;12.20;33.60
6496;DHT22;3281;47.658;9.166;2022-09-30T08:23:02;12.30;33.00
6496;DHT22;3281;47.658;9.166;2022-09-30T08:25:29;12.20;29.30
6496;DHT22;3281;47.658;9.166;2022-09-30T08:27:56;12.20;28.10
6496;DHT22;3281;47.658;9.166;2022-09-30T08:30:23;12.30;30.70
6496;DHT22;3281;47.658;9.166;2022-09-30T08:32:49;12.40;30.00
6496;DHT22;3281;47.658;9.166;2022-09-30T08:35:16;12.30;25.10
6496;DHT22;3281;47.658;9.166;2022-09-30T08:37:43;12.40;28.10
6496;DHT22;3281;47.658;9.166;2022-09-30T08:40:17;12.40;28.20
6496;DHT22;3281;47.658;9.166;2022-09-30T08:43:05;12.50;28.30
6496;DHT22;3281;47.658;9.166;2022-09-30T08:45:40;12.50;28.30
6496;DHT22;3281;47.658;9.166;2022-09-30T08:48:21;12.50;21.50
6496;DHT22;3281;47.658;9.166;2022-09-30T08:51:00;12.60;23.60
6496;DHT22;3281;47.658;9.166;2022-09-30T08:53:33;12.50;23.60
6496;DHT22;3281;47.658;9.166;2022-09-30T08:56:03;12.60;22.50
6496;DHT22;3281;47.658;9.166;2022-09-30T08:58:32;12.60;19.60
6496;DHT22;3281;47.658;9.166;2022-09-30T09:01:12;12.60;19.60
6496;DHT22;3281;47.658;9.166;2022-09-30T09:03:40;12.70;22.70
6496;DHT22;3281;47.658;9.166;2022-09-30T09:06:19;12.70;23.60
6496;DHT22;3281;47.658;9.166;2022-09-30T09:09:08;12.60;19.60
6496;DHT22;3281;47.658;9.166;2022-09-30T09:11:47;12.70;22.20
6496;DHT22;3281;47.658;9.166;2022-09-30T09:14:26;12.70;19.70
6496;DHT22;3281;47.658;9.166;2022-09-30T09:17:02;12.70;19.60
6496;DHT22;3281;47.658;9.166;2022-09-30T09:19:36;12.70;16.90
6496;DHT22;3281;47.658;9.166;2022-09-30T09:22:03;12.70;16.90
6496;DHT22;3281;47.658;9.166;2022-09-30T09:24:35;12.70;15.90
6496;DHT22;3281;47.658;9.166;2022-09-30T09:27:17;12.80;15.70
6496;DHT22;3281;47.658;9.166;2022-09-30T09:29:52;12.80;16.20
6496;DHT22;3281;47.658;9.166;2022-09-30T09:32:25;12.80;16.10
6496;DHT22;3281;47.658;9.166;2022-09-30T09:34:56;12.80;19.70
6496;DHT22;3281;47.658;9.166;2022-09-30T09:37:31;12.90;20.50
6496;DHT22;3281;47.658;9.166;2022-09-30T09:40:33;12.90;17.10
6496;DHT22;3281;47.658;9.166;2022-09-30T09:43:11;12.90;13.50
6496;DHT22;3281;47.658;9.166;2022-09-30T09:45:51;12.90;9.50
6496;DHT22;3281;47.658;9.166;2022-09-30T09:48:20;12.90;16.90
6496;DHT22;3281;47.658;9.166;2022-09-30T09:50:56;12.90;12.90
6496;DHT22;3281;47.658;9.166;2022-09-30T09:53:39;13.00;14.00
6496;DHT22;3281;47.658;9.166;2022-09-30T09:56:13;13.00;17.10
6496;DHT22;3281;47.658;9.166;2022-09-30T09:59:07;13.00;13.00
6496;DHT22;3281;47.658;9.166;2022-09-30T10:01:37;12.90;8.10
6496;DHT22;3281;47.658;9.166;2022-09-30T10:04:13;12.90;9.30
6496;DHT22;3281;47.658;9.166;2022-09-30T10:06:50;13.00;11.00
6496;DHT22;3281;47.658;9.166;2022-09-30T10:09:26;12.90;1.00
6496;DHT22;3281;47.658;9.166;2022-09-30T10:12:16;13.10;11.00
6496;DHT22;3281;47.658;9.166;2022-09-30T10:14:51;13.10;10.70
6496;DHT22;3281;47.658;9.166;2022-09-30T10:17:25;13.10;10.40
6496;DHT22;3281;47.658;9.166;2022-09-30T10:19:57;13.20;12.40
6496;DHT22;3281;47.658;9.166;2022-09-30T10:22:26;13.20;1.20
6496;DHT22;3281;47.658;9.166;2022-09-30T10:25:22;13.10;4.70
6496;DHT22;3281;47.658;9.166;2022-09-30T10:27:52;13.10;8.20
6496;DHT22;3281;47.658;9.166;2022-09-30T10:30:32;13.10;8.70
6496;DHT22;3281;47.658;9.166;2022-09-30T10:33:00;13.20;6.80
6496;DHT22;3281;47.658;9.166;2022-09-30T10:35:29;13.30;10.80
6496;DHT22;3281;47.658;9.166;2022-09-30T10:37:57;13.30;6.30
6496;DHT22;3281;47.658;9.166;2022-09-30T10:40:27;13.40;5.90
6496;DHT22;3281;47.658;9.166;2022-09-30T10:42:55;13.40;1.00
6496;DHT22;3281;47.658;9.166;2022-09-30T10:45:23;13.50;6.20
6496;DHT22;3281;47.658;9.166;2022-09-30T10:47:55;13.70;6.40
6496;DHT22;3281;47.658;9.166;2022-09-30T10:50:24;13.60;1.50
6496;DHT22;3281;47.658;9.166;2022-09-30T10:52:54;13.70;6.40
6496;DHT22;3281;47.658;9.166;2022-09-30T10:55:27;13.80;2.80
6496;DHT22;3281;47.658;9.166;2022-09-30T10:58:02;13.60;4.00
6496;DHT22;3281;47.658;9.166;2022-09-30T11:00:47;13.70;9.00
6496;DHT22;3281;47.658;9.166;2022-09-30T11:03:17;13.60;5.20
6496;DHT22;3281;47.658;9.166;2022-09-30T11:05:48;13.60;5.90
6496;DHT22;3281;47.658;9.166;2022-09-30T11:08:18;13.60;8.90
6496;DHT22;3281;47.658;9.166;2022-09-30T11:10:49;13.60;5.40
6496;DHT22;3281;47.658;9.166;2022-09-30T11:13:23;13.50;4.90
6496;DHT22;3281;47.658;9.166;2022-09-30T11:16:00;13.40;4.70
6496;DHT22;3281;47.658;9.166;2022-09-30T11:18:35;13.40;3.10
6496;DHT22;3281;47.658;9.166;2022-09-30T11:21:08;13.50;2.10
6496;DHT22;3281;47.658;9.166;2022-09-30T11:23:39;13.40;1.30
6496;DHT22;3281;47.658;9.166;2022-09-30T11:26:15;13.50;3.80
6496;DHT22;3281;47.658;9.166;2022-09-30T11:28:56;13.50;1.00
6496;DHT22;3281;47.658;9.166;2022-09-30T11:31:31;13.60;1.00
6496;DHT22;3281;47.658;9.166;2022-09-30T11:34:13;13.60;1.00
6496;DHT22;3281;47.658;9.166;2022-09-30T11:36:48;13.80;1.60
6496;DHT22;3281;47.658;9.166;2022-09-30T11:39:42;13.80;1.00
6496;DHT22;3281;47.658;9.166;2022-09-30T11:42:15;13.90;1.70
6496;DHT22;3281;47.658;9.166;2022-09-30T11:44:45;13.90;5.10
6496;DHT22;3281;47.658;9.166;2022-09-30T11:47:33;13.90;4.20
6496;DHT22;3281;47.658;9.166;2022-09-30T11:50:22;14.00;1.70
6496;DHT22;3281;47.658;9.166;2022-09-30T11:52:57;14.10;1.00
6496;DHT22;3281;47.658;9.166;2022-09-30T11:55:35;14.30;1.00
6496;DHT22;3281;47.658;9.166;2022-09-30T11:58:07;14.40;2.00
6496;DHT22;3281;47.658;9.166;2022-09-30T12:00:36;14.30;1.00
6496;DHT22;3281;47.658;9.166;2022-09-30T12:03:09;14.30;1.00
6496;DHT22;3281;47.658;9.166;2022-09-30T12:05:42;14.30;1.00
6496;DHT22;3281;47.658;9.166;2022-09-30T12:08:14;14.20;1.00
6496;DHT22;3281;47.658;9.166;2022-09-30T12:10:45;14.10;1.00
6496;DHT22;3281;47.658;9.166;2022-09-30T12:13:17;14.00;1.00
6496;DHT22;3281;47.658;9.166;2022-09-30T12:15:47;14.00;1.00
6496;DHT22;3281;47.658;9.166;2022-09-30T12:18:17;14.10;1.00
6496;DHT22;3281;47.658;9.166;2022-09-30T12:20:49;14.10;1.00
6496;DHT22;3281;47.658;9.166;2022-09-30T12:23:20;14.10;1.00
6496;DHT22;3281;47.658;9.166;2022-09-30T12:25:55;14.10;1.00
6496;DHT22;3281;47.658;9.166;2022-09-30T12:28:31;13.90;1.00
6496;DHT22;3281;47.658;9.166;2022-09-30T12:31:30;14.00;1.00
6496;DHT22;3281;47.658;9.166;2022-09-30T12:34:11;14.10;1.00
6496;DHT22;3281;47.658;9.166;2022-09-30T12:36:56;14.30;1.00
6496;DHT22;3281;47.658;9.166;2022-09-30T12:39:44;14.30;1.00
6496;DHT22;3281;47.658;9.166;2022-09-30T12:42:25;14.20;1.00
6496;DHT22;3281;47.658;9.166;2022-09-30T12:45:25;14.20;1.00
6496;DHT22;3281;47.658;9.166;2022-09-30T12:47:57;14.30;1.00
6496;DHT22;3281;47.658;9.166;2022-09-30T12:50:26;14.20;1.00
6496;DHT22;3281;47.658;9.166;2022-09-30T12:52:56;14.20;1.00
6496;DHT22;3281;47.658;9.166;2022-09-30T12:55:26;14.10;1.00
6496;DHT22;3281;47.658;9.166;2022-09-30T12:57:56;14.00;1.00
6496;DHT22;3281;47.658;9.166;2022-09-30T13:00:27;14.00;1.00
6496;DHT22;3281;47.658;9.166;2022-09-30T13:02:57;13.80;1.00
6496;DHT22;3281;47.658;9.166;2022-09-30T13:05:50;13.90;1.00
6496;DHT22;3281;47.658;9.166;2022-09-30T13:08:44;13.80;1.00
6496;DHT22;3281;47.658;9.166;2022-09-30T13:11:38;13.80;1.00
6496;DHT22;3281;47.658;9.166;2022-09-30T13:17:24;13.80;1.00
6496;DHT22;3281;47.658;9.166;2022-09-30T13:19:53;13.80;1.00
6496;DHT22;3281;47.658;9.166;2022-09-30T13:22:54;13.80;1.00
6496;DHT22;3281;47.658;9.166;2022-09-30T13:25:22;13.80;1.00
6496;DHT22;3281;47.658;9.166;2022-09-30T13:27:51;13.90;1.00
6496;DHT22;3281;47.658;9.166;2022-09-30T13:30:34;13.90;1.00
6496;DHT22;3281;47.658;9.166;2022-09-30T13:33:30;14.00;1.00
6496;DHT22;3281;47.658;9.166;2022-09-30T13:36:06;14.00;1.00
6496;DHT22;3281;47.658;9.166;2022-09-30T13:38:38;14.00;1.00
6496;DHT22;3281;47.658;9.166;2022-09-30T13:41:15;13.90;1.00
6496;DHT22;3281;47.658;9.166;2022-09-30T13:43:46;14.00;1.00
6496;DHT22;3281;47.658;9.166;2022-09-30T13:46:21;14.00;1.00
6496;DHT22;3281;47.658;9.166;2022-09-30T13:48:53;14.10;1.00
6496;DHT22;3281;47.658;9.166;2022-09-30T13:51:23;14.10;1.00
6496;DHT22;3281;47.658;9.166;2022-09-30T13:53:51;14.00;1.00
6496;DHT22;3281;47.658;9.166;2022-09-30T13:56:22;14.00;1.00
6496;DHT22;3281;47.658;9.166;2022-09-30T14:02:36;14.00;1.00
6496;DHT22;3281;47.658;9.166;2022-09-30T14:08:26;13.80;1.00
6496;DHT22;3281;47.658;9.166;2022-09-30T14:13:59;13.90;1.00
6496;DHT22;3281;47.658;9.166;2022-09-30T14:16:52;13.90;1.00
6496;DHT22;3281;47.658;9.166;2022-09-30T14:19:47;13.80;1.00
6496;DHT22;3281;47.658;9.166;2022-09-30T14:22:19;13.90;2.90
6496;DHT22;3281;47.658;9.166;2022-09-30T14:24:50;13.90;1.00
6496;DHT22;3281;47.658;9.166;2022-09-30T14:27:40;13.80;1.00
6496;DHT22;3281;47.658;9.166;2022-09-30T14:30:13;13.90;1.00
6496;DHT22;3281;47.658;9.166;2022-09-30T14:32:44;14.00;1.00
6496;DHT22;3281;47.658;9.166;2022-09-30T14:35:16;14.10;1.00
6496;DHT22;3281;47.658;9.166;2022-09-30T14:37:46;14.10;1.00
6496;DHT22;3281;47.658;9.166;2022-09-30T14:40:16;14.20;1.00
6496;DHT22;3281;47.658;9.166;2022-09-30T14:42:44;14.20;1.00
6496;DHT22;3281;47.658;9.166;2022-09-30T14:45:18;14.20;1.00
6496;DHT22;3281;47.658;9.166;2022-09-30T14:47:49;14.30;1.00
6496;DHT22;3281;47.658;9.166;2022-09-30T14:50:19;14.30;1.00
6496;DHT22;3281;47.658;9.166;2022-09-30T14:52:48;14.40;1.00
6496;DHT22;3281;47.658;9.166;2022-09-30T14:55:26;14.40;1.00
6496;DHT22;3281;47.658;9.166;2022-09-30T15:00:39;14.30;1.00
6496;DHT22;3281;47.658;9.166;2022-09-30T15:03:10;14.30;1.00
6496;DHT22;3281;47.658;9.166;2022-09-30T15:05:38;14.10;1.00
6496;DHT22;3281;47.658;9.166;2022-09-30T15:08:09;14.10;1.00
6496;DHT22;3281;47.658;9.166;2022-09-30T15:10:37;14.00;1.00
6496;DHT22;3281;47.658;9.166;2022-09-30T15:13:07;14.00;1.00
6496;DHT22;3281;47.658;9.166;2022-09-30T15:15:35;14.00;1.00
6496;DHT22;3281;47.658;9.166;2022-09-30T15:18:28;14.00;1.00
6496;DHT22;3281;47.658;9.166;2022-09-30T15:20:58;14.00;1.00
6496;DHT22;3281;47.658;9.166;2022-09-30T15:23:29;14.00;1.00
6496;DHT22;3281;47.658;9.166;2022-09-30T15:25:57;14.00;1.00
6496;DHT22;3281;47.658;9.166;2022-09-30T15:28:24;14.00;1.00
6496;DHT22;3281;47.658;9.166;2022-09-30T15:30:53;14.10;1.00
6496;DHT22;3281;47.658;9.166;2022-09-30T15:33:24;14.10;1.00
6496;DHT22;3281;47.658;9.166;2022-09-30T15:36:00;14.00;1.00
6496;DHT22;3281;47.658;9.166;2022-09-30T15:38:29;13.90;1.00
6496;DHT22;3281;47.658;9.166;2022-09-30T15:40:59;13.90;1.00
6496;DHT22;3281;47.658;9.166;2022-09-30T15:43:33;13.90;1.00
6496;DHT22;3281;47.658;9.166;2022-09-30T15:46:22;13.80;1.00
6496;DHT22;3281;47.658;9.166;2022-09-30T15:48:52;13.80;1.00
6496;DHT22;3281;47.658;9.166;2022-09-30T15:51:28;13.90;1.00
6496;DHT22;3281;47.658;9.166;2022-09-30T15:53:56;14.10;1.00
6496;DHT22;3281;47.658;9.166;2022-09-30T15:56:30;14.00;1.00
6496;DHT22;3281;47.658;9.166;2022-09-30T15:58:59;13.90;1.00
6496;DHT22;3281;47.658;9.166;2022-09-30T16:01:33;14.00;1.00
6496;DHT22;3281;47.658;9.166;2022-09-30T16:04:04;14.00;1.00
6496;DHT22;3281;47.658;9.166;2022-09-30T16:06:37;13.90;1.00
6496;DHT22;3281;47.658;9.166;2022-09-30T16:09:18;13.90;1.00
6496;DHT22;3281;47.658;9.166;2022-09-30T16:11:55;13.90;1.00
6496;DHT22;3281;47.658;9.166;2022-09-30T16:14:25;13.90;1.00
6496;DHT22;3281;47.658;9.166;2022-09-30T16:16:55;13.80;1.00
6496;DHT22;3281;47.658;9.166;2022-09-30T16:19:24;13.80;1.00
6496;DHT22;3281;47.658;9.166;2022-09-30T16:21:53;13.80;1.00
6496;DHT22;3281;47.658;9.166;2022-09-30T16:24:43;13.80;1.00
6496;DHT22;3281;47.658;9.166;2022-09-30T16:27:29;13.70;1.00
6496;DHT22;3281;47.658;9.166;2022-09-30T16:29:57;13.70;1.00
6496;DHT22;3281;47.658;9.166;2022-09-30T16:32:26;13.60;1.00
6496;DHT22;3281;47.658;9.166;2022-09-30T16:34:55;13.60;1.00
6496;DHT22;3281;47.658;9.166;2022-09-30T16:37:22;13.70;1.00
6496;DHT22;3281;47.658;9.166;2022-09-30T16:39:49;13.60;1.00
6496;DHT22;3281;47.658;9.166;2022-09-30T16:42:17;13.60;1.00
6496;DHT22;3281;47.658;9.166;2022-09-30T16:44:43;13.50;1.00
6496;DHT22;3281;47.658;9.166;2022-09-30T16:47:15;13.50;1.00
6496;DHT22;3281;47.658;9.166;2022-09-30T16:49:44;13.50;1.00
6496;DHT22;3281;47.658;9.166;2022-09-30T16:52:13;13.50;1.00
6496;DHT22;3281;47.658;9.166;2022-09-30T16:54:40;13.40;1.00
6496;DHT22;3281;47.658;9.166;2022-09-30T16:57:11;13.10;1.00
6496;DHT22;3281;47.658;9.166;2022-09-30T16:59:37;13.00;1.00